CFG2DK LEPA-EDDF
Flight info
| Callsign | CFG2DK |
|---|---|
| Flight time | 1h 58m |
| Altitude | 32000 |
| Route | MEROS DCT LAPIT DCT CHELY DCT LUMAS DCT MAXIR DCT LUSOL DCT BODRU DCT OKTET DCT IRMAR/N0449F380 DCT KINES DCT VANAS DCT ESOKO DCT GODRA/N0463F330 DCT LADOL/N0450F380 T163 EMPAX EMPAX5B |
| Aircraft | A320/M-SDE3FGHIRWY/LB1 |
Departure
| Time | 2026-04-17 10:04 |
|---|---|
| Airport | Palma de Mallorca Airport (LEPA) |
Arrival
| Time | 2026-04-17 12:03 |
|---|---|
| Airport | Frankfurt Main Airport (EDDF) |
| Time | Latitude | Longitude | Altitude | Speed | Heading |
|---|---|---|---|---|---|
| 2026-04-17 09:26 | 39.54865 | 2.73534 | 38 ft | 0 kts | 48° |
| 2026-04-17 09:34 | 39.54865 | 2.73533 | 38 ft | 0 kts | 48° |
| 2026-04-17 09:50 | 39.54861 | 2.73526 | 38 ft | 4 kts | 45° |
| 2026-04-17 09:50 | 39.54840 | 2.73504 | 38 ft | 4 kts | 42° |
| 2026-04-17 09:51 | 39.54828 | 2.73491 | 38 ft | 0 kts | 354° |
| 2026-04-17 09:51 | 39.54812 | 2.73499 | 37 ft | 0 kts | 330° |
| 2026-04-17 09:51 | 39.54865 | 2.73533 | 38 ft | 0 kts | 48° |
| 2026-04-17 09:54 | 39.54848 | 2.73512 | 38 ft | 4 kts | 39° |
| 2026-04-17 09:54 | 39.54830 | 2.73492 | 38 ft | 4 kts | 6° |
| 2026-04-17 09:54 | 39.54811 | 2.73500 | 37 ft | 3 kts | 329° |
| 2026-04-17 09:55 | 39.54788 | 2.73518 | 36 ft | 4 kts | 329° |
| 2026-04-17 09:55 | 39.54765 | 2.73536 | 36 ft | 4 kts | 329° |
| 2026-04-17 09:55 | 39.54743 | 2.73553 | 37 ft | 2 kts | 329° |
| 2026-04-17 09:55 | 39.54741 | 2.73554 | 37 ft | 0 kts | 329° |
| 2026-04-17 09:59 | 39.54768 | 2.73529 | 35 ft | 7 kts | 314° |
| 2026-04-17 09:59 | 39.54755 | 2.73472 | 37 ft | 9 kts | 213° |
| 2026-04-17 09:59 | 39.54700 | 2.73495 | 38 ft | 10 kts | 150° |
| 2026-04-17 09:59 | 39.54632 | 2.73551 | 38 ft | 11 kts | 138° |
| 2026-04-17 10:00 | 39.54644 | 2.73634 | 37 ft | 11 kts | 62° |
| 2026-04-17 10:00 | 39.54699 | 2.73756 | 38 ft | 20 kts | 60° |
| 2026-04-17 10:00 | 39.54773 | 2.73911 | 38 ft | 21 kts | 54° |
| 2026-04-17 10:00 | 39.54855 | 2.73993 | 38 ft | 14 kts | 338° |
| 2026-04-17 10:01 | 39.54937 | 2.73981 | 38 ft | 13 kts | 56° |
| 2026-04-17 10:01 | 39.54985 | 2.73996 | 37 ft | 7 kts | 328° |
| 2026-04-17 10:01 | 39.55047 | 2.73951 | 38 ft | 16 kts | 329° |
| 2026-04-17 10:01 | 39.55164 | 2.73857 | 38 ft | 24 kts | 328° |
| 2026-04-17 10:02 | 39.55325 | 2.73732 | 38 ft | 28 kts | 328° |
| 2026-04-17 10:02 | 39.55496 | 2.73598 | 38 ft | 29 kts | 329° |
| 2026-04-17 10:02 | 39.55637 | 2.73503 | 37 ft | 16 kts | 0° |
| 2026-04-17 10:02 | 39.55706 | 2.73610 | 38 ft | 18 kts | 58° |
| 2026-04-17 10:03 | 39.55785 | 2.73777 | 38 ft | 23 kts | 58° |
| 2026-04-17 10:03 | 39.55871 | 2.73913 | 38 ft | 14 kts | 358° |
| 2026-04-17 10:03 | 39.55954 | 2.73844 | 38 ft | 14 kts | 329° |
| 2026-04-17 10:03 | 39.55998 | 2.73780 | 38 ft | 7 kts | 235° |
| 2026-04-17 10:04 | 39.55942 | 2.73665 | 38 ft | 41 kts | 238° |
| 2026-04-17 10:04 | 39.55664 | 2.73074 | 38 ft | 110 kts | 238° |
| 2026-04-17 10:04 | 39.55162 | 2.72020 | 92 ft | 157 kts | 238° |
| 2026-04-17 10:04 | 39.54605 | 2.70799 | 723 ft | 158 kts | 238° |
| 2026-04-17 10:05 | 39.54036 | 2.69585 | 1448 ft | 157 kts | 239° |
| 2026-04-17 10:05 | 39.53453 | 2.68359 | 2026 ft | 167 kts | 239° |
| 2026-04-17 10:05 | 39.52803 | 2.66994 | 2359 ft | 190 kts | 238° |
| 2026-04-17 10:05 | 39.52071 | 2.65457 | 2737 ft | 209 kts | 238° |
| 2026-04-17 10:06 | 39.51295 | 2.63828 | 3355 ft | 215 kts | 238° |
| 2026-04-17 10:06 | 39.50505 | 2.62171 | 4034 ft | 218 kts | 238° |
| 2026-04-17 10:06 | 39.49543 | 2.60644 | 4637 ft | 226 kts | 218° |
| 2026-04-17 10:06 | 39.48114 | 2.59601 | 4988 ft | 248 kts | 207° |
| 2026-04-17 10:07 | 39.46490 | 2.58561 | 5447 ft | 270 kts | 206° |
| 2026-04-17 10:07 | 39.44776 | 2.57477 | 6243 ft | 278 kts | 206° |
| 2026-04-17 10:07 | 39.42942 | 2.56658 | 7052 ft | 284 kts | 184° |
| 2026-04-17 10:07 | 39.41016 | 2.57127 | 7850 ft | 286 kts | 150° |
| 2026-04-17 10:08 | 39.39477 | 2.58740 | 8704 ft | 287 kts | 131° |
| 2026-04-17 10:08 | 39.38062 | 2.60581 | 9557 ft | 292 kts | 138° |
| 2026-04-17 10:08 | 39.36552 | 2.62351 | 10403 ft | 295 kts | 132° |
| 2026-04-17 10:08 | 39.35102 | 2.64364 | 10730 ft | 318 kts | 132° |
| 2026-04-17 10:09 | 39.34047 | 2.65740 | 10898 ft | 334 kts | 134° |
| 2026-04-17 10:09 | 39.32311 | 2.67891 | 11114 ft | 357 kts | 135° |
| 2026-04-17 10:09 | 39.30448 | 2.70135 | 11471 ft | 373 kts | 135° |
| 2026-04-17 10:09 | 39.28543 | 2.72457 | 12086 ft | 379 kts | 131° |
| 2026-04-17 10:10 | 39.27152 | 2.75321 | 12716 ft | 379 kts | 107° |
| 2026-04-17 10:10 | 39.26740 | 2.78669 | 13371 ft | 380 kts | 90° |
| 2026-04-17 10:10 | 39.26672 | 2.82098 | 14038 ft | 384 kts | 88° |
| 2026-04-17 10:11 | 39.27148 | 2.88992 | 15228 ft | 389 kts | 72° |
| 2026-04-17 10:11 | 39.28055 | 2.92277 | 15857 ft | 389 kts | 63° |
| 2026-04-17 10:11 | 39.29339 | 2.95356 | 16473 ft | 391 kts | 57° |
| 2026-04-17 10:11 | 39.30700 | 2.98405 | 17108 ft | 394 kts | 58° |
| 2026-04-17 10:12 | 39.32065 | 3.01496 | 17722 ft | 397 kts | 58° |
| 2026-04-17 10:12 | 39.33436 | 3.04613 | 18338 ft | 401 kts | 58° |
| 2026-04-17 10:12 | 39.34820 | 3.07757 | 18888 ft | 404 kts | 58° |
| 2026-04-17 10:12 | 39.36214 | 3.10921 | 19411 ft | 407 kts | 58° |
| 2026-04-17 10:13 | 39.37621 | 3.14110 | 19920 ft | 410 kts | 58° |
| 2026-04-17 10:13 | 39.39039 | 3.17315 | 20428 ft | 412 kts | 58° |
| 2026-04-17 10:13 | 39.40471 | 3.20542 | 20907 ft | 415 kts | 58° |
| 2026-04-17 10:13 | 39.41908 | 3.23794 | 21387 ft | 418 kts | 58° |
| 2026-04-17 10:14 | 39.43353 | 3.27064 | 21857 ft | 420 kts | 58° |
| 2026-04-17 10:14 | 39.44832 | 3.30335 | 22309 ft | 422 kts | 57° |
| 2026-04-17 10:14 | 39.46342 | 3.33607 | 22746 ft | 425 kts | 57° |
| 2026-04-17 10:14 | 39.47872 | 3.36891 | 23165 ft | 427 kts | 57° |
| 2026-04-17 10:15 | 39.49410 | 3.40191 | 23583 ft | 430 kts | 57° |
| 2026-04-17 10:15 | 39.50953 | 3.43518 | 23954 ft | 432 kts | 57° |
| 2026-04-17 10:15 | 39.52496 | 3.46869 | 24292 ft | 434 kts | 57° |
| 2026-04-17 10:15 | 39.54042 | 3.50240 | 24608 ft | 436 kts | 57° |
| 2026-04-17 10:16 | 39.55593 | 3.53628 | 24932 ft | 439 kts | 57° |
| 2026-04-17 10:16 | 39.57152 | 3.57039 | 25246 ft | 441 kts | 57° |
| 2026-04-17 10:16 | 39.58717 | 3.60466 | 25559 ft | 443 kts | 57° |
| 2026-04-17 10:16 | 39.60287 | 3.63908 | 25856 ft | 444 kts | 57° |
| 2026-04-17 10:17 | 39.61863 | 3.67363 | 26163 ft | 446 kts | 57° |
| 2026-04-17 10:17 | 39.63443 | 3.70836 | 26451 ft | 448 kts | 57° |
| 2026-04-17 10:17 | 39.65028 | 3.74326 | 26726 ft | 450 kts | 57° |
| 2026-04-17 10:17 | 39.66617 | 3.77831 | 26996 ft | 451 kts | 57° |
| 2026-04-17 10:18 | 39.68212 | 3.81351 | 27265 ft | 453 kts | 57° |
| 2026-04-17 10:18 | 39.69814 | 3.84884 | 27505 ft | 455 kts | 57° |
| 2026-04-17 10:18 | 39.71421 | 3.88435 | 27749 ft | 457 kts | 57° |
| 2026-04-17 10:18 | 39.73031 | 3.91995 | 27956 ft | 458 kts | 57° |
| 2026-04-17 10:19 | 39.74645 | 3.95567 | 28195 ft | 459 kts | 57° |
| 2026-04-17 10:19 | 39.76257 | 3.99141 | 28510 ft | 458 kts | 57° |
| 2026-04-17 10:19 | 39.77862 | 4.02709 | 28818 ft | 457 kts | 57° |
| 2026-04-17 10:19 | 39.79462 | 4.06272 | 29126 ft | 456 kts | 57° |
| 2026-04-17 10:20 | 39.81061 | 4.09833 | 29441 ft | 455 kts | 57° |
| 2026-04-17 10:20 | 39.82674 | 4.13374 | 29755 ft | 454 kts | 54° |
| 2026-04-17 10:20 | 39.84603 | 4.16599 | 30065 ft | 451 kts | 44° |
| 2026-04-17 10:20 | 39.86931 | 4.19303 | 30360 ft | 447 kts | 34° |
| 2026-04-17 10:21 | 39.89567 | 4.21429 | 30633 ft | 445 kts | 25° |
| 2026-04-17 10:21 | 39.92429 | 4.22914 | 30916 ft | 442 kts | 15° |
| 2026-04-17 10:21 | 39.95427 | 4.23764 | 31205 ft | 441 kts | 9° |
| 2026-04-17 10:21 | 39.98446 | 4.24465 | 31496 ft | 440 kts | 9° |
| 2026-04-17 10:22 | 40.01451 | 4.25163 | 31791 ft | 439 kts | 9° |
| 2026-04-17 10:22 | 40.04452 | 4.25863 | 32086 ft | 437 kts | 9° |
| 2026-04-17 10:22 | 40.07442 | 4.26564 | 32380 ft | 436 kts | 9° |
| 2026-04-17 10:22 | 40.10422 | 4.27268 | 32675 ft | 435 kts | 9° |
| 2026-04-17 10:23 | 40.13398 | 4.27975 | 32969 ft | 434 kts | 9° |
| 2026-04-17 10:23 | 40.16360 | 4.28679 | 33264 ft | 433 kts | 9° |
| 2026-04-17 10:23 | 40.19319 | 4.29379 | 33553 ft | 431 kts | 9° |
| 2026-04-17 10:23 | 40.22270 | 4.30076 | 33843 ft | 430 kts | 9° |
| 2026-04-17 10:24 | 40.25214 | 4.30773 | 34133 ft | 429 kts | 9° |
| 2026-04-17 10:24 | 40.28150 | 4.31468 | 34398 ft | 428 kts | 9° |
| 2026-04-17 10:24 | 40.31080 | 4.32161 | 34652 ft | 427 kts | 9° |
| 2026-04-17 10:24 | 40.34002 | 4.32854 | 34902 ft | 426 kts | 9° |
| 2026-04-17 10:25 | 40.36918 | 4.33549 | 35154 ft | 425 kts | 9° |
| 2026-04-17 10:25 | 40.39826 | 4.34241 | 35407 ft | 424 kts | 9° |
| 2026-04-17 10:25 | 40.42727 | 4.34929 | 35624 ft | 424 kts | 9° |
| 2026-04-17 10:25 | 40.45628 | 4.35620 | 35842 ft | 423 kts | 9° |
| 2026-04-17 10:26 | 40.48526 | 4.36309 | 36061 ft | 423 kts | 9° |
| 2026-04-17 10:26 | 40.51420 | 4.36994 | 36171 ft | 423 kts | 9° |
| 2026-04-17 10:26 | 40.54319 | 4.37685 | 36193 ft | 424 kts | 9° |
| 2026-04-17 10:27 | 40.60126 | 4.39077 | 36192 ft | 424 kts | 9° |
| 2026-04-17 10:27 | 40.65927 | 4.40464 | 36192 ft | 424 kts | 9° |
| 2026-04-17 10:28 | 40.71729 | 4.41852 | 36192 ft | 424 kts | 9° |
| 2026-04-17 10:28 | 40.77531 | 4.43245 | 36186 ft | 424 kts | 9° |
| 2026-04-17 10:29 | 40.83333 | 4.44634 | 36196 ft | 424 kts | 9° |
| 2026-04-17 10:29 | 40.89142 | 4.46032 | 36194 ft | 425 kts | 9° |
| 2026-04-17 10:30 | 40.94955 | 4.47441 | 36186 ft | 425 kts | 9° |
| 2026-04-17 10:30 | 41.00771 | 4.48858 | 36189 ft | 425 kts | 9° |
| 2026-04-17 10:31 | 41.06591 | 4.50264 | 36189 ft | 425 kts | 8° |
| 2026-04-17 10:31 | 41.12421 | 4.51670 | 36180 ft | 426 kts | 8° |
| 2026-04-17 10:32 | 41.18257 | 4.53096 | 36183 ft | 427 kts | 9° |
| 2026-04-17 10:32 | 41.24100 | 4.54529 | 36185 ft | 427 kts | 9° |
| 2026-04-17 10:33 | 41.29951 | 4.55968 | 36183 ft | 428 kts | 8° |
| 2026-04-17 10:33 | 41.35812 | 4.57406 | 36184 ft | 428 kts | 8° |
| 2026-04-17 10:34 | 41.41633 | 4.58839 | 36201 ft | 428 kts | 8° |
| 2026-04-17 10:34 | 41.47490 | 4.60285 | 36203 ft | 427 kts | 8° |
| 2026-04-17 10:35 | 41.53349 | 4.61721 | 36198 ft | 427 kts | 8° |
| 2026-04-17 10:35 | 41.59206 | 4.63165 | 36195 ft | 428 kts | 8° |
| 2026-04-17 10:36 | 41.65028 | 4.64605 | 36194 ft | 428 kts | 8° |
| 2026-04-17 10:36 | 41.70898 | 4.66091 | 36193 ft | 429 kts | 11° |
| 2026-04-17 10:37 | 41.76438 | 4.69166 | 36189 ft | 435 kts | 28° |
| 2026-04-17 10:37 | 41.81607 | 4.73322 | 36178 ft | 436 kts | 27° |
| 2026-04-17 10:38 | 41.86827 | 4.77504 | 36178 ft | 436 kts | 27° |
| 2026-04-17 10:38 | 41.92039 | 4.81701 | 36175 ft | 437 kts | 27° |
| 2026-04-17 10:39 | 41.97253 | 4.85917 | 36175 ft | 437 kts | 27° |
| 2026-04-17 10:39 | 42.02468 | 4.90137 | 36173 ft | 437 kts | 27° |
| 2026-04-17 10:40 | 42.07669 | 4.94346 | 36175 ft | 438 kts | 27° |
| 2026-04-17 10:40 | 42.12895 | 4.98591 | 36188 ft | 438 kts | 27° |
| 2026-04-17 10:41 | 42.18113 | 5.02840 | 36185 ft | 438 kts | 28° |
| 2026-04-17 10:41 | 42.23333 | 5.07093 | 36177 ft | 438 kts | 27° |
| 2026-04-17 10:42 | 42.28549 | 5.11353 | 36174 ft | 438 kts | 28° |
| 2026-04-17 10:42 | 42.33771 | 5.15628 | 36169 ft | 437 kts | 27° |
| 2026-04-17 10:43 | 42.38980 | 5.19897 | 36166 ft | 439 kts | 28° |
| 2026-04-17 10:43 | 42.44207 | 5.24192 | 36164 ft | 440 kts | 28° |
| 2026-04-17 10:44 | 42.49437 | 5.28499 | 36171 ft | 440 kts | 27° |
| 2026-04-17 10:44 | 42.54671 | 5.32820 | 36162 ft | 441 kts | 28° |
| 2026-04-17 10:45 | 42.59910 | 5.37156 | 36164 ft | 441 kts | 28° |
| 2026-04-17 10:45 | 42.65150 | 5.41490 | 36167 ft | 441 kts | 28° |
| 2026-04-17 10:46 | 42.70354 | 5.45790 | 36160 ft | 441 kts | 28° |
| 2026-04-17 10:46 | 42.75590 | 5.50136 | 36161 ft | 441 kts | 28° |
| 2026-04-17 10:47 | 42.80822 | 5.54499 | 36160 ft | 441 kts | 28° |
| 2026-04-17 10:47 | 42.86051 | 5.58873 | 36162 ft | 441 kts | 28° |
| 2026-04-17 10:48 | 42.91284 | 5.63258 | 36158 ft | 442 kts | 28° |
| 2026-04-17 10:48 | 42.96533 | 5.67661 | 36149 ft | 443 kts | 28° |
| 2026-04-17 10:49 | 43.01795 | 5.72076 | 36155 ft | 444 kts | 28° |
| 2026-04-17 10:49 | 43.07056 | 5.76498 | 36161 ft | 444 kts | 28° |
| 2026-04-17 10:50 | 43.12320 | 5.80940 | 36154 ft | 445 kts | 28° |
| 2026-04-17 10:50 | 43.17587 | 5.85398 | 36150 ft | 445 kts | 28° |
| 2026-04-17 10:51 | 43.22857 | 5.89872 | 36157 ft | 446 kts | 28° |
| 2026-04-17 10:51 | 43.28127 | 5.94343 | 36158 ft | 446 kts | 28° |
| 2026-04-17 10:52 | 43.32524 | 5.98073 | 36151 ft | 446 kts | 28° |
| 2026-04-17 10:52 | 43.37898 | 6.02325 | 36139 ft | 443 kts | 20° |
| 2026-04-17 10:53 | 43.43784 | 6.04478 | 36139 ft | 436 kts | 2° |
| 2026-04-17 10:53 | 43.49826 | 6.05081 | 36141 ft | 436 kts | 1° |
| 2026-04-17 10:54 | 43.55881 | 6.05695 | 36136 ft | 436 kts | 1° |
| 2026-04-17 10:54 | 43.61940 | 6.06314 | 36134 ft | 437 kts | 1° |
| 2026-04-17 10:55 | 43.68006 | 6.06939 | 36144 ft | 437 kts | 1° |
| 2026-04-17 10:55 | 43.74083 | 6.07565 | 36140 ft | 438 kts | 4° |
| 2026-04-17 10:56 | 43.79992 | 6.09781 | 36152 ft | 446 kts | 21° |
| 2026-04-17 10:56 | 43.85567 | 6.13577 | 36156 ft | 446 kts | 23° |
| 2026-04-17 10:57 | 43.91140 | 6.17382 | 36163 ft | 447 kts | 23° |
| 2026-04-17 10:57 | 43.96718 | 6.21186 | 36159 ft | 447 kts | 23° |
| 2026-04-17 10:58 | 44.02300 | 6.25006 | 36169 ft | 447 kts | 23° |
| 2026-04-17 10:58 | 44.07879 | 6.28838 | 36172 ft | 448 kts | 23° |
| 2026-04-17 10:59 | 44.13468 | 6.32680 | 36169 ft | 448 kts | 23° |
| 2026-04-17 10:59 | 44.19055 | 6.36532 | 36169 ft | 448 kts | 23° |
| 2026-04-17 11:00 | 44.24645 | 6.40386 | 36178 ft | 448 kts | 23° |
| 2026-04-17 11:00 | 44.30243 | 6.44254 | 36185 ft | 449 kts | 23° |
| 2026-04-17 11:01 | 44.35839 | 6.48131 | 36200 ft | 449 kts | 23° |
| 2026-04-17 11:01 | 44.41389 | 6.51996 | 36200 ft | 448 kts | 23° |
| 2026-04-17 11:02 | 44.47009 | 6.55914 | 36194 ft | 449 kts | 23° |
| 2026-04-17 11:02 | 44.52601 | 6.59803 | 36192 ft | 449 kts | 23° |
| 2026-04-17 11:03 | 44.58191 | 6.63712 | 36190 ft | 449 kts | 23° |
| 2026-04-17 11:03 | 44.63737 | 6.67608 | 36186 ft | 449 kts | 23° |
| 2026-04-17 11:04 | 44.69324 | 6.71525 | 36189 ft | 449 kts | 23° |
| 2026-04-17 11:04 | 44.74909 | 6.75457 | 36187 ft | 449 kts | 23° |
| 2026-04-17 11:05 | 44.80742 | 6.78308 | 36192 ft | 441 kts | 6° |
| 2026-04-17 11:05 | 44.86813 | 6.78607 | 36187 ft | 436 kts | 354° |
| 2026-04-17 11:06 | 44.92876 | 6.78191 | 36188 ft | 437 kts | 354° |
| 2026-04-17 11:06 | 44.98948 | 6.77790 | 36186 ft | 437 kts | 354° |
| 2026-04-17 11:07 | 45.05029 | 6.77398 | 36203 ft | 438 kts | 354° |
| 2026-04-17 11:07 | 45.11116 | 6.77007 | 36291 ft | 438 kts | 354° |
| 2026-04-17 11:07 | 45.14155 | 6.76807 | 36568 ft | 436 kts | 354° |
| 2026-04-17 11:08 | 45.17181 | 6.76606 | 36705 ft | 436 kts | 354° |
| 2026-04-17 11:08 | 45.20210 | 6.76405 | 36908 ft | 436 kts | 354° |
| 2026-04-17 11:08 | 45.23237 | 6.76204 | 37116 ft | 435 kts | 354° |
| 2026-04-17 11:08 | 45.26259 | 6.76002 | 37310 ft | 434 kts | 354° |
| 2026-04-17 11:09 | 45.29274 | 6.75799 | 37491 ft | 434 kts | 354° |
| 2026-04-17 11:09 | 45.32291 | 6.75593 | 37700 ft | 434 kts | 354° |
| 2026-04-17 11:09 | 45.35304 | 6.75384 | 37890 ft | 433 kts | 354° |
| 2026-04-17 11:10 | 45.41331 | 6.75011 | 38193 ft | 435 kts | 358° |
| 2026-04-17 11:10 | 45.44351 | 6.75390 | 38203 ft | 438 kts | 7° |
| 2026-04-17 11:10 | 45.50121 | 6.78329 | 38205 ft | 447 kts | 26° |
| 2026-04-17 11:11 | 45.55502 | 6.82793 | 38205 ft | 448 kts | 27° |
| 2026-04-17 11:11 | 45.60886 | 6.87267 | 38206 ft | 448 kts | 27° |
| 2026-04-17 11:12 | 45.66268 | 6.91738 | 38211 ft | 448 kts | 27° |
| 2026-04-17 11:12 | 45.71656 | 6.96218 | 38206 ft | 448 kts | 27° |
| 2026-04-17 11:13 | 45.77045 | 7.00718 | 38218 ft | 449 kts | 27° |
| 2026-04-17 11:13 | 45.82439 | 7.05248 | 38206 ft | 450 kts | 27° |
| 2026-04-17 11:14 | 45.87837 | 7.09781 | 38206 ft | 450 kts | 27° |
| 2026-04-17 11:14 | 45.93231 | 7.14324 | 38219 ft | 449 kts | 27° |
| 2026-04-17 11:15 | 45.98617 | 7.18879 | 38233 ft | 449 kts | 27° |
| 2026-04-17 11:15 | 46.04001 | 7.23441 | 38227 ft | 449 kts | 27° |
| 2026-04-17 11:16 | 46.09378 | 7.28007 | 38220 ft | 448 kts | 27° |
| 2026-04-17 11:16 | 46.14746 | 7.32578 | 38228 ft | 448 kts | 27° |
| 2026-04-17 11:17 | 46.20119 | 7.37167 | 38220 ft | 449 kts | 27° |
| 2026-04-17 11:17 | 46.25495 | 7.41746 | 38216 ft | 448 kts | 27° |
| 2026-04-17 11:18 | 46.30869 | 7.46345 | 38219 ft | 449 kts | 27° |
| 2026-04-17 11:18 | 46.36231 | 7.50960 | 38237 ft | 448 kts | 27° |
| 2026-04-17 11:19 | 46.41597 | 7.55582 | 38236 ft | 449 kts | 27° |
| 2026-04-17 11:19 | 46.46966 | 7.60214 | 38238 ft | 449 kts | 27° |
| 2026-04-17 11:20 | 46.52338 | 7.64864 | 38237 ft | 449 kts | 27° |
| 2026-04-17 11:20 | 46.57702 | 7.69519 | 38236 ft | 449 kts | 27° |
| 2026-04-17 11:21 | 46.63114 | 7.74036 | 38236 ft | 448 kts | 25° |
| 2026-04-17 11:21 | 46.68644 | 7.78202 | 38236 ft | 447 kts | 24° |
| 2026-04-17 11:22 | 46.74186 | 7.82308 | 38242 ft | 447 kts | 24° |
| 2026-04-17 11:22 | 46.79700 | 7.86511 | 38241 ft | 448 kts | 25° |
| 2026-04-17 11:23 | 46.85196 | 7.90785 | 38237 ft | 448 kts | 25° |
| 2026-04-17 11:23 | 46.90694 | 7.95059 | 38254 ft | 448 kts | 24° |
| 2026-04-17 11:24 | 46.96196 | 7.99328 | 38245 ft | 447 kts | 24° |
| 2026-04-17 11:24 | 47.01700 | 8.03590 | 38239 ft | 447 kts | 25° |
| 2026-04-17 11:25 | 47.12735 | 8.12195 | 38247 ft | 448 kts | 24° |
| 2026-04-17 11:26 | 47.18237 | 8.16498 | 38252 ft | 448 kts | 25° |
| 2026-04-17 11:26 | 47.22801 | 8.20086 | 38250 ft | 448 kts | 25° |
| 2026-04-17 11:27 | 47.28746 | 8.24753 | 38250 ft | 448 kts | 25° |
| 2026-04-17 11:27 | 47.34249 | 8.29087 | 38252 ft | 448 kts | 25° |
| 2026-04-17 11:28 | 47.39741 | 8.33440 | 38262 ft | 448 kts | 25° |
| 2026-04-17 11:28 | 47.45232 | 8.37790 | 38254 ft | 448 kts | 25° |
| 2026-04-17 11:29 | 47.50717 | 8.42146 | 38265 ft | 447 kts | 25° |
| 2026-04-17 11:29 | 47.56203 | 8.46499 | 38250 ft | 447 kts | 25° |
| 2026-04-17 11:30 | 47.61677 | 8.50862 | 38245 ft | 447 kts | 25° |
| 2026-04-17 11:30 | 47.67116 | 8.55213 | 38243 ft | 447 kts | 25° |
| 2026-04-17 11:31 | 47.72590 | 8.59605 | 38258 ft | 447 kts | 25° |
| 2026-04-17 11:31 | 47.78069 | 8.64015 | 38250 ft | 448 kts | 25° |
| 2026-04-17 11:32 | 47.83541 | 8.68427 | 38246 ft | 448 kts | 25° |
| 2026-04-17 11:32 | 47.89022 | 8.72843 | 38246 ft | 448 kts | 25° |
| 2026-04-17 11:33 | 47.94500 | 8.77278 | 38242 ft | 448 kts | 24° |
| 2026-04-17 11:33 | 47.99980 | 8.81723 | 37979 ft | 448 kts | 24° |
| 2026-04-17 11:34 | 48.02713 | 8.83943 | 37232 ft | 447 kts | 25° |
| 2026-04-17 11:34 | 48.05444 | 8.86164 | 36626 ft | 447 kts | 25° |
| 2026-04-17 11:34 | 48.08179 | 8.88391 | 36065 ft | 448 kts | 25° |
| 2026-04-17 11:34 | 48.10920 | 8.90625 | 35270 ft | 448 kts | 25° |
| 2026-04-17 11:35 | 48.13665 | 8.92843 | 34559 ft | 448 kts | 22° |
| 2026-04-17 11:35 | 48.16492 | 8.94580 | 34312 ft | 444 kts | 14° |
| 2026-04-17 11:35 | 48.19481 | 8.95680 | 34182 ft | 441 kts | 5° |
| 2026-04-17 11:35 | 48.22528 | 8.96205 | 34226 ft | 441 kts | 2° |
| 2026-04-17 11:36 | 48.28620 | 8.97139 | 33295 ft | 439 kts | 2° |
| 2026-04-17 11:36 | 48.31637 | 8.97605 | 32914 ft | 429 kts | 2° |
| 2026-04-17 11:36 | 48.34556 | 8.98059 | 32776 ft | 414 kts | 2° |
| 2026-04-17 11:37 | 48.37373 | 8.98494 | 32630 ft | 401 kts | 2° |
| 2026-04-17 11:37 | 48.40118 | 8.98913 | 32291 ft | 393 kts | 2° |
| 2026-04-17 11:37 | 48.42828 | 8.99324 | 31853 ft | 389 kts | 2° |
| 2026-04-17 11:37 | 48.45508 | 8.99729 | 31391 ft | 386 kts | 2° |
| 2026-04-17 11:38 | 48.48168 | 9.00130 | 30921 ft | 383 kts | 2° |
| 2026-04-17 11:38 | 48.50812 | 9.00531 | 30468 ft | 381 kts | 2° |
| 2026-04-17 11:38 | 48.53438 | 9.00930 | 29984 ft | 378 kts | 2° |
| 2026-04-17 11:38 | 48.56049 | 9.01330 | 29479 ft | 376 kts | 2° |
| 2026-04-17 11:39 | 48.58640 | 9.01726 | 28988 ft | 373 kts | 2° |
| 2026-04-17 11:39 | 48.61209 | 9.02116 | 28512 ft | 370 kts | 3° |
| 2026-04-17 11:39 | 48.63765 | 9.02528 | 28044 ft | 368 kts | 4° |
| 2026-04-17 11:39 | 48.66296 | 9.03052 | 27577 ft | 366 kts | 6° |
| 2026-04-17 11:40 | 48.68766 | 9.03646 | 27129 ft | 364 kts | 6° |
| 2026-04-17 11:40 | 48.71255 | 9.04282 | 26677 ft | 361 kts | 7° |
| 2026-04-17 11:40 | 48.73724 | 9.04921 | 26235 ft | 359 kts | 7° |
| 2026-04-17 11:40 | 48.76178 | 9.05539 | 25789 ft | 356 kts | 7° |
| 2026-04-17 11:41 | 48.78619 | 9.06137 | 25345 ft | 354 kts | 6° |
| 2026-04-17 11:41 | 48.81044 | 9.06724 | 24913 ft | 352 kts | 6° |
| 2026-04-17 11:41 | 48.83456 | 9.07300 | 24474 ft | 350 kts | 6° |
| 2026-04-17 11:41 | 48.85855 | 9.07874 | 24042 ft | 348 kts | 7° |
| 2026-04-17 11:42 | 48.88236 | 9.08441 | 23586 ft | 346 kts | 6° |
| 2026-04-17 11:42 | 48.90615 | 9.08901 | 23100 ft | 343 kts | 4° |
| 2026-04-17 11:42 | 48.92983 | 9.09246 | 22633 ft | 341 kts | 3° |
| 2026-04-17 11:42 | 48.95343 | 9.09542 | 22190 ft | 339 kts | 2° |
| 2026-04-17 11:43 | 48.97684 | 9.09828 | 21741 ft | 337 kts | 2° |
| 2026-04-17 11:43 | 49.00020 | 9.10124 | 21328 ft | 335 kts | 3° |
| 2026-04-17 11:43 | 49.02335 | 9.10437 | 20911 ft | 334 kts | 3° |
| 2026-04-17 11:43 | 49.04642 | 9.10762 | 20499 ft | 332 kts | 3° |
| 2026-04-17 11:44 | 49.06934 | 9.11088 | 20105 ft | 330 kts | 3° |
| 2026-04-17 11:44 | 49.09215 | 9.11413 | 19712 ft | 329 kts | 3° |
| 2026-04-17 11:44 | 49.11487 | 9.11736 | 19329 ft | 327 kts | 3° |
| 2026-04-17 11:44 | 49.13750 | 9.12059 | 18948 ft | 326 kts | 4° |
| 2026-04-17 11:45 | 49.15999 | 9.12385 | 18583 ft | 324 kts | 4° |
| 2026-04-17 11:45 | 49.18257 | 9.12699 | 17870 ft | 331 kts | 3° |
| 2026-04-17 11:45 | 49.20606 | 9.12992 | 16976 ft | 344 kts | 3° |
| 2026-04-17 11:45 | 49.23009 | 9.13281 | 16324 ft | 348 kts | 3° |
| 2026-04-17 11:46 | 49.25427 | 9.13568 | 15830 ft | 347 kts | 3° |
| 2026-04-17 11:46 | 49.27827 | 9.13851 | 15377 ft | 345 kts | 3° |
| 2026-04-17 11:46 | 49.30218 | 9.14130 | 14931 ft | 343 kts | 3° |
| 2026-04-17 11:46 | 49.32538 | 9.14400 | 14756 ft | 333 kts | 3° |
| 2026-04-17 11:47 | 49.34814 | 9.14667 | 14638 ft | 322 kts | 3° |
| 2026-04-17 11:47 | 49.37012 | 9.14927 | 14516 ft | 312 kts | 3° |
| 2026-04-17 11:47 | 49.39154 | 9.15183 | 14300 ft | 306 kts | 3° |
| 2026-04-17 11:47 | 49.41264 | 9.15438 | 13995 ft | 304 kts | 3° |
| 2026-04-17 11:48 | 49.43364 | 9.15692 | 13647 ft | 302 kts | 2° |
| 2026-04-17 11:48 | 49.45454 | 9.15949 | 13278 ft | 300 kts | 3° |
| 2026-04-17 11:48 | 49.47527 | 9.16205 | 12919 ft | 298 kts | 2° |
| 2026-04-17 11:48 | 49.49592 | 9.16448 | 12555 ft | 297 kts | 3° |
| 2026-04-17 11:49 | 49.51645 | 9.16691 | 12208 ft | 295 kts | 2° |
| 2026-04-17 11:49 | 49.53684 | 9.16936 | 11862 ft | 293 kts | 3° |
| 2026-04-17 11:49 | 49.55708 | 9.17175 | 11494 ft | 291 kts | 3° |
| 2026-04-17 11:49 | 49.57731 | 9.17398 | 11135 ft | 290 kts | 2° |
| 2026-04-17 11:50 | 49.59735 | 9.17620 | 10789 ft | 288 kts | 3° |
| 2026-04-17 11:50 | 49.61731 | 9.17836 | 10440 ft | 287 kts | 3° |
| 2026-04-17 11:50 | 49.63717 | 9.18034 | 10233 ft | 286 kts | 3° |
| 2026-04-17 11:50 | 49.65700 | 9.18226 | 10231 ft | 287 kts | 3° |
| 2026-04-17 11:51 | 49.67692 | 9.18418 | 10231 ft | 286 kts | 1° |
| 2026-04-17 11:51 | 49.69660 | 9.18065 | 10234 ft | 286 kts | 346° |
| 2026-04-17 11:51 | 49.71595 | 9.17282 | 9980 ft | 287 kts | 344° |
| 2026-04-17 11:51 | 49.73508 | 9.16463 | 9662 ft | 284 kts | 344° |
| 2026-04-17 11:52 | 49.75386 | 9.15654 | 9348 ft | 283 kts | 344° |
| 2026-04-17 11:52 | 49.77280 | 9.14835 | 9037 ft | 282 kts | 344° |
| 2026-04-17 11:52 | 49.79171 | 9.14015 | 8726 ft | 282 kts | 344° |
| 2026-04-17 11:52 | 49.81055 | 9.13195 | 8418 ft | 281 kts | 344° |
| 2026-04-17 11:53 | 49.82938 | 9.12374 | 8118 ft | 280 kts | 344° |
| 2026-04-17 11:53 | 49.84816 | 9.11562 | 7815 ft | 281 kts | 343° |
| 2026-04-17 11:53 | 49.86702 | 9.10762 | 7515 ft | 281 kts | 344° |
| 2026-04-17 11:53 | 49.88579 | 9.09959 | 7224 ft | 280 kts | 344° |
| 2026-04-17 11:54 | 49.90459 | 9.09157 | 6925 ft | 280 kts | 344° |
| 2026-04-17 11:54 | 49.92331 | 9.08363 | 6629 ft | 279 kts | 344° |
| 2026-04-17 11:54 | 49.94201 | 9.07574 | 6321 ft | 278 kts | 344° |
| 2026-04-17 11:54 | 49.96070 | 9.06787 | 6012 ft | 277 kts | 344° |
| 2026-04-17 11:55 | 49.97923 | 9.06008 | 5705 ft | 276 kts | 344° |
| 2026-04-17 11:55 | 49.99768 | 9.05233 | 5400 ft | 274 kts | 344° |
| 2026-04-17 11:55 | 50.01600 | 9.04463 | 5092 ft | 273 kts | 344° |
| 2026-04-17 11:55 | 50.03414 | 9.03704 | 4793 ft | 267 kts | 344° |
| 2026-04-17 11:56 | 50.05189 | 9.02963 | 4485 ft | 262 kts | 344° |
| 2026-04-17 11:56 | 50.06923 | 9.02220 | 4177 ft | 255 kts | 340° |
| 2026-04-17 11:56 | 50.08370 | 9.00809 | 4018 ft | 241 kts | 309° |
| 2026-04-17 11:56 | 50.09119 | 8.98619 | 4012 ft | 222 kts | 287° |
| 2026-04-17 11:57 | 50.09554 | 8.96412 | 4006 ft | 205 kts | 284° |
| 2026-04-17 11:57 | 50.09928 | 8.94354 | 4054 ft | 192 kts | 284° |
| 2026-04-17 11:57 | 50.10290 | 8.92359 | 4021 ft | 190 kts | 284° |
| 2026-04-17 11:57 | 50.10649 | 8.90389 | 4015 ft | 189 kts | 284° |
| 2026-04-17 11:58 | 50.10872 | 8.88394 | 4019 ft | 186 kts | 266° |
| 2026-04-17 11:58 | 50.10590 | 8.86463 | 3978 ft | 186 kts | 248° |
| 2026-04-17 11:58 | 50.10144 | 8.84579 | 3799 ft | 186 kts | 249° |
| 2026-04-17 11:58 | 50.09697 | 8.82694 | 3569 ft | 185 kts | 248° |
| 2026-04-17 11:59 | 50.09254 | 8.80815 | 3331 ft | 184 kts | 248° |
| 2026-04-17 11:59 | 50.08813 | 8.78948 | 3083 ft | 183 kts | 248° |
| 2026-04-17 11:59 | 50.08374 | 8.77087 | 2840 ft | 184 kts | 249° |
| 2026-04-17 11:59 | 50.07993 | 8.75195 | 2617 ft | 178 kts | 256° |
| 2026-04-17 12:00 | 50.07778 | 8.73386 | 2360 ft | 160 kts | 260° |
| 2026-04-17 12:00 | 50.07567 | 8.71775 | 2089 ft | 147 kts | 253° |
| 2026-04-17 12:00 | 50.07268 | 8.70306 | 1815 ft | 139 kts | 250° |
| 2026-04-17 12:00 | 50.06950 | 8.68930 | 1572 ft | 133 kts | 248° |
| 2026-04-17 12:01 | 50.06619 | 8.67580 | 1312 ft | 133 kts | 248° |
| 2026-04-17 12:01 | 50.06302 | 8.66225 | 1192 ft | 134 kts | 250° |
| 2026-04-17 12:01 | 50.06091 | 8.65326 | 1107 ft | 133 kts | 247° |
| 2026-04-17 12:01 | 50.05761 | 8.63979 | 983 ft | 134 kts | 248° |
| 2026-04-17 12:02 | 50.05443 | 8.62621 | 831 ft | 133 kts | 249° |
| 2026-04-17 12:02 | 50.05127 | 8.61272 | 706 ft | 132 kts | 248° |
| 2026-04-17 12:02 | 50.04805 | 8.59929 | 539 ft | 131 kts | 248° |
| 2026-04-17 12:02 | 50.04487 | 8.58593 | 409 ft | 131 kts | 249° |
| 2026-04-17 12:03 | 50.04177 | 8.57289 | 367 ft | 121 kts | 249° |
| 2026-04-17 12:03 | 50.03927 | 8.56255 | 353 ft | 78 kts | 250° |
| 2026-04-17 12:03 | 50.03802 | 8.55712 | 355 ft | 25 kts | 250° |
| 2026-04-17 12:03 | 50.03824 | 8.55522 | 355 ft | 17 kts | 342° |
| 2026-04-17 12:04 | 50.03878 | 8.55494 | 359 ft | 0 kts | 339° |
| 2026-04-17 12:05 | 50.03905 | 8.55483 | 357 ft | 11 kts | 348° |
| 2026-04-17 12:05 | 50.03983 | 8.55458 | 357 ft | 12 kts | 344° |
| 2026-04-17 12:05 | 50.04070 | 8.55411 | 360 ft | 13 kts | 340° |
| 2026-04-17 12:06 | 50.04090 | 8.55316 | 357 ft | 10 kts | 243° |
| 2026-04-17 12:06 | 50.04062 | 8.55197 | 359 ft | 13 kts | 249° |
| 2026-04-17 12:06 | 50.04024 | 8.55041 | 361 ft | 17 kts | 249° |
| 2026-04-17 12:06 | 50.03978 | 8.54853 | 360 ft | 18 kts | 249° |
| 2026-04-17 12:07 | 50.03947 | 8.54748 | 361 ft | 8 kts | 225° |
| 2026-04-17 12:07 | 50.03904 | 8.54766 | 357 ft | 6 kts | 151° |
| 2026-04-17 12:07 | 50.03867 | 8.54788 | 360 ft | 5 kts | 160° |
| 2026-04-17 12:07 | 50.03858 | 8.54793 | 359 ft | 0 kts | 159° |